sensor_id;sensor_type;location;lat;lon;timestamp;temperature;humidity
14006;DHT22;7078;51.542;7.314;2023-08-06T00:01:48;15.20;99.90
14006;DHT22;7078;51.542;7.314;2023-08-06T00:04:14;15.20;99.90
14006;DHT22;7078;51.542;7.314;2023-08-06T00:06:39;15.20;99.90
14006;DHT22;7078;51.542;7.314;2023-08-06T00:09:05;15.20;99.90
14006;DHT22;7078;51.542;7.314;2023-08-06T00:11:30;15.20;99.90
14006;DHT22;7078;51.542;7.314;2023-08-06T00:13:56;15.30;99.90
14006;DHT22;7078;51.542;7.314;2023-08-06T00:16:21;15.20;99.90
14006;DHT22;7078;51.542;7.314;2023-08-06T00:18:47;15.20;99.90
14006;DHT22;7078;51.542;7.314;2023-08-06T00:21:13;15.20;99.90
14006;DHT22;7078;51.542;7.314;2023-08-06T00:23:39;15.20;99.90
14006;DHT22;7078;51.542;7.314;2023-08-06T00:26:04;15.20;99.90
14006;DHT22;7078;51.542;7.314;2023-08-06T00:28:30;15.20;99.90
14006;DHT22;7078;51.542;7.314;2023-08-06T00:30:56;15.30;99.90
14006;DHT22;7078;51.542;7.314;2023-08-06T00:33:24;15.30;99.90
14006;DHT22;7078;51.542;7.314;2023-08-06T00:35:50;15.30;99.90
14006;DHT22;7078;51.542;7.314;2023-08-06T00:38:16;15.30;99.90
14006;DHT22;7078;51.542;7.314;2023-08-06T00:40:41;15.30;99.90
14006;DHT22;7078;51.542;7.314;2023-08-06T00:43:07;15.30;99.90
14006;DHT22;7078;51.542;7.314;2023-08-06T00:45:37;15.30;99.90
14006;DHT22;7078;51.542;7.314;2023-08-06T00:48:05;15.30;99.90
14006;DHT22;7078;51.542;7.314;2023-08-06T00:50:31;15.30;99.90
14006;DHT22;7078;51.542;7.314;2023-08-06T00:52:56;15.30;99.90
14006;DHT22;7078;51.542;7.314;2023-08-06T00:55:23;15.30;99.90
14006;DHT22;7078;51.542;7.314;2023-08-06T00:57:48;15.30;99.90
14006;DHT22;7078;51.542;7.314;2023-08-06T01:00:15;15.30;99.90
14006;DHT22;7078;51.542;7.314;2023-08-06T01:02:41;15.30;99.90
14006;DHT22;7078;51.542;7.314;2023-08-06T01:05:06;15.30;99.90
14006;DHT22;7078;51.542;7.314;2023-08-06T01:10:45;15.30;99.90
14006;DHT22;7078;51.542;7.314;2023-08-06T01:13:29;15.30;99.90
14006;DHT22;7078;51.542;7.314;2023-08-06T01:15:58;15.30;99.90
14006;DHT22;7078;51.542;7.314;2023-08-06T01:18:25;15.30;99.90
14006;DHT22;7078;51.542;7.314;2023-08-06T01:20:51;15.30;99.90
14006;DHT22;7078;51.542;7.314;2023-08-06T01:23:17;15.30;99.90
14006;DHT22;7078;51.542;7.314;2023-08-06T01:26:05;15.30;99.90
14006;DHT22;7078;51.542;7.314;2023-08-06T01:28:54;15.30;99.90
14006;DHT22;7078;51.542;7.314;2023-08-06T01:31:24;15.20;99.90
14006;DHT22;7078;51.542;7.314;2023-08-06T01:33:53;15.20;99.90
14006;DHT22;7078;51.542;7.314;2023-08-06T01:36:19;15.20;99.90
14006;DHT22;7078;51.542;7.314;2023-08-06T01:38:45;15.20;99.90
14006;DHT22;7078;51.542;7.314;2023-08-06T01:41:11;15.20;99.90
14006;DHT22;7078;51.542;7.314;2023-08-06T01:43:36;15.20;99.90
14006;DHT22;7078;51.542;7.314;2023-08-06T01:46:02;15.20;99.90
14006;DHT22;7078;51.542;7.314;2023-08-06T01:48:27;15.20;99.90
14006;DHT22;7078;51.542;7.314;2023-08-06T01:50:53;15.20;99.90
14006;DHT22;7078;51.542;7.314;2023-08-06T01:53:19;15.20;99.90
14006;DHT22;7078;51.542;7.314;2023-08-06T01:55:50;15.20;99.90
14006;DHT22;7078;51.542;7.314;2023-08-06T01:58:16;15.20;99.90
14006;DHT22;7078;51.542;7.314;2023-08-06T02:00:41;15.20;99.90
14006;DHT22;7078;51.542;7.314;2023-08-06T02:03:07;15.30;99.90
14006;DHT22;7078;51.542;7.314;2023-08-06T02:05:32;15.20;99.90
14006;DHT22;7078;51.542;7.314;2023-08-06T02:07:58;15.20;99.90
14006;DHT22;7078;51.542;7.314;2023-08-06T02:10:23;15.20;99.90
14006;DHT22;7078;51.542;7.314;2023-08-06T02:12:49;15.20;99.90
14006;DHT22;7078;51.542;7.314;2023-08-06T02:15:15;15.20;99.90
14006;DHT22;7078;51.542;7.314;2023-08-06T02:17:40;15.20;99.90
14006;DHT22;7078;51.542;7.314;2023-08-06T02:20:06;15.20;99.90
14006;DHT22;7078;51.542;7.314;2023-08-06T02:22:32;15.20;99.90
14006;DHT22;7078;51.542;7.314;2023-08-06T02:24:58;15.20;99.90
14006;DHT22;7078;51.542;7.314;2023-08-06T02:27:24;15.20;99.90
14006;DHT22;7078;51.542;7.314;2023-08-06T02:29:49;15.20;99.90
14006;DHT22;7078;51.542;7.314;2023-08-06T02:32:15;15.20;99.90
14006;DHT22;7078;51.542;7.314;2023-08-06T02:34:40;15.20;99.90
14006;DHT22;7078;51.542;7.314;2023-08-06T02:37:06;15.20;99.90
14006;DHT22;7078;51.542;7.314;2023-08-06T02:39:31;15.20;99.90
14006;DHT22;7078;51.542;7.314;2023-08-06T02:41:58;15.20;99.90
14006;DHT22;7078;51.542;7.314;2023-08-06T02:44:27;15.20;99.90
14006;DHT22;7078;51.542;7.314;2023-08-06T02:46:53;15.10;99.90
14006;DHT22;7078;51.542;7.314;2023-08-06T02:49:18;15.10;99.90
14006;DHT22;7078;51.542;7.314;2023-08-06T02:51:46;15.10;99.90
14006;DHT22;7078;51.542;7.314;2023-08-06T02:54:12;15.10;99.90
14006;DHT22;7078;51.542;7.314;2023-08-06T02:56:37;15.10;99.90
14006;DHT22;7078;51.542;7.314;2023-08-06T02:59:03;15.10;99.90
14006;DHT22;7078;51.542;7.314;2023-08-06T03:01:29;15.10;99.90
14006;DHT22;7078;51.542;7.314;2023-08-06T03:03:55;15.20;99.90
14006;DHT22;7078;51.542;7.314;2023-08-06T03:06:20;15.10;99.90
14006;DHT22;7078;51.542;7.314;2023-08-06T03:08:46;15.10;99.90
14006;DHT22;7078;51.542;7.314;2023-08-06T03:11:11;15.00;99.90
14006;DHT22;7078;51.542;7.314;2023-08-06T03:13:37;15.00;99.90
14006;DHT22;7078;51.542;7.314;2023-08-06T03:16:02;15.00;99.90
14006;DHT22;7078;51.542;7.314;2023-08-06T03:18:28;15.00;99.90
14006;DHT22;7078;51.542;7.314;2023-08-06T03:20:54;14.90;99.90
14006;DHT22;7078;51.542;7.314;2023-08-06T03:23:20;14.90;99.90
14006;DHT22;7078;51.542;7.314;2023-08-06T03:25:46;14.90;99.90
14006;DHT22;7078;51.542;7.314;2023-08-06T03:28:11;14.80;99.90
14006;DHT22;7078;51.542;7.314;2023-08-06T03:30:38;14.80;99.90
14006;DHT22;7078;51.542;7.314;2023-08-06T03:33:03;14.80;99.90
14006;DHT22;7078;51.542;7.314;2023-08-06T03:35:29;14.70;99.90
14006;DHT22;7078;51.542;7.314;2023-08-06T03:37:54;14.70;99.90
14006;DHT22;7078;51.542;7.314;2023-08-06T03:40:20;14.70;99.90
14006;DHT22;7078;51.542;7.314;2023-08-06T03:42:46;14.60;99.90
14006;DHT22;7078;51.542;7.314;2023-08-06T03:45:11;14.60;99.90
14006;DHT22;7078;51.542;7.314;2023-08-06T03:47:37;14.60;99.90
14006;DHT22;7078;51.542;7.314;2023-08-06T03:50:02;14.60;99.90
14006;DHT22;7078;51.542;7.314;2023-08-06T03:52:28;14.50;99.90
14006;DHT22;7078;51.542;7.314;2023-08-06T03:54:53;14.50;99.90
14006;DHT22;7078;51.542;7.314;2023-08-06T03:57:19;14.50;99.90
14006;DHT22;7078;51.542;7.314;2023-08-06T03:59:44;14.50;99.90
14006;DHT22;7078;51.542;7.314;2023-08-06T04:02:10;14.50;99.90
14006;DHT22;7078;51.542;7.314;2023-08-06T04:04:35;14.50;99.90
14006;DHT22;7078;51.542;7.314;2023-08-06T04:07:01;14.50;99.90
14006;DHT22;7078;51.542;7.314;2023-08-06T04:09:28;14.50;99.90
14006;DHT22;7078;51.542;7.314;2023-08-06T04:11:54;14.50;99.90
14006;DHT22;7078;51.542;7.314;2023-08-06T04:14:19;14.50;99.90
14006;DHT22;7078;51.542;7.314;2023-08-06T04:16:45;14.50;99.90
14006;DHT22;7078;51.542;7.314;2023-08-06T04:19:11;14.50;99.90
14006;DHT22;7078;51.542;7.314;2023-08-06T04:21:36;14.50;99.90
14006;DHT22;7078;51.542;7.314;2023-08-06T04:24:02;14.50;99.90
14006;DHT22;7078;51.542;7.314;2023-08-06T04:26:27;14.40;99.90
14006;DHT22;7078;51.542;7.314;2023-08-06T04:28:53;14.40;99.90
14006;DHT22;7078;51.542;7.314;2023-08-06T04:31:18;14.30;99.90
14006;DHT22;7078;51.542;7.314;2023-08-06T04:33:44;14.40;99.90
14006;DHT22;7078;51.542;7.314;2023-08-06T04:36:10;14.30;99.90
14006;DHT22;7078;51.542;7.314;2023-08-06T04:38:35;14.40;99.90
14006;DHT22;7078;51.542;7.314;2023-08-06T04:41:02;14.40;99.90
14006;DHT22;7078;51.542;7.314;2023-08-06T04:43:28;14.40;99.90
14006;DHT22;7078;51.542;7.314;2023-08-06T04:45:55;14.40;99.90
14006;DHT22;7078;51.542;7.314;2023-08-06T04:48:21;14.50;99.90
14006;DHT22;7078;51.542;7.314;2023-08-06T04:50:48;14.50;99.90
14006;DHT22;7078;51.542;7.314;2023-08-06T04:53:15;14.40;99.90
14006;DHT22;7078;51.542;7.314;2023-08-06T04:55:40;14.60;99.90
14006;DHT22;7078;51.542;7.314;2023-08-06T04:58:06;14.70;99.90
14006;DHT22;7078;51.542;7.314;2023-08-06T05:00:32;14.80;99.90
14006;DHT22;7078;51.542;7.314;2023-08-06T05:02:59;14.90;99.90
14006;DHT22;7078;51.542;7.314;2023-08-06T05:05:26;14.90;99.90
14006;DHT22;7078;51.542;7.314;2023-08-06T05:07:54;15.00;99.90
14006;DHT22;7078;51.542;7.314;2023-08-06T05:10:20;15.00;99.90
14006;DHT22;7078;51.542;7.314;2023-08-06T05:12:45;15.00;99.90
14006;DHT22;7078;51.542;7.314;2023-08-06T05:15:11;15.10;99.90
14006;DHT22;7078;51.542;7.314;2023-08-06T05:17:37;15.20;99.90
14006;DHT22;7078;51.542;7.314;2023-08-06T05:20:02;15.20;99.90
14006;DHT22;7078;51.542;7.314;2023-08-06T05:22:28;15.30;99.90
14006;DHT22;7078;51.542;7.314;2023-08-06T05:24:54;15.30;99.90
14006;DHT22;7078;51.542;7.314;2023-08-06T05:27:19;15.40;99.90
14006;DHT22;7078;51.542;7.314;2023-08-06T05:29:45;15.40;99.90
14006;DHT22;7078;51.542;7.314;2023-08-06T05:32:11;15.40;99.90
14006;DHT22;7078;51.542;7.314;2023-08-06T05:34:37;15.40;99.90
14006;DHT22;7078;51.542;7.314;2023-08-06T05:37:03;15.50;99.90
14006;DHT22;7078;51.542;7.314;2023-08-06T05:39:29;15.50;99.90
14006;DHT22;7078;51.542;7.314;2023-08-06T05:41:54;15.60;99.90
14006;DHT22;7078;51.542;7.314;2023-08-06T05:44:21;15.60;99.90
14006;DHT22;7078;51.542;7.314;2023-08-06T05:46:46;15.70;99.90
14006;DHT22;7078;51.542;7.314;2023-08-06T05:49:12;15.80;99.90
14006;DHT22;7078;51.542;7.314;2023-08-06T05:51:39;15.90;99.90
14006;DHT22;7078;51.542;7.314;2023-08-06T05:54:04;16.00;99.90
14006;DHT22;7078;51.542;7.314;2023-08-06T05:56:30;16.00;99.90
14006;DHT22;7078;51.542;7.314;2023-08-06T05:58:55;16.10;99.90
14006;DHT22;7078;51.542;7.314;2023-08-06T06:01:21;16.10;99.90
14006;DHT22;7078;51.542;7.314;2023-08-06T06:03:47;16.20;99.90
14006;DHT22;7078;51.542;7.314;2023-08-06T06:06:12;16.20;99.90
14006;DHT22;7078;51.542;7.314;2023-08-06T06:08:38;16.30;99.90
14006;DHT22;7078;51.542;7.314;2023-08-06T06:11:03;16.30;99.90
14006;DHT22;7078;51.542;7.314;2023-08-06T06:13:29;16.40;99.90
14006;DHT22;7078;51.542;7.314;2023-08-06T06:15:55;16.50;99.90
14006;DHT22;7078;51.542;7.314;2023-08-06T06:18:21;16.60;99.90
14006;DHT22;7078;51.542;7.314;2023-08-06T06:20:47;16.60;99.90
14006;DHT22;7078;51.542;7.314;2023-08-06T06:23:12;16.70;99.90
14006;DHT22;7078;51.542;7.314;2023-08-06T06:25:42;16.80;99.90
14006;DHT22;7078;51.542;7.314;2023-08-06T06:28:08;16.90;99.90
14006;DHT22;7078;51.542;7.314;2023-08-06T06:30:34;17.00;99.90
14006;DHT22;7078;51.542;7.314;2023-08-06T06:33:00;17.20;99.90
14006;DHT22;7078;51.542;7.314;2023-08-06T06:35:25;17.30;99.90
14006;DHT22;7078;51.542;7.314;2023-08-06T06:37:51;17.40;99.90
14006;DHT22;7078;51.542;7.314;2023-08-06T06:40:17;17.60;99.90
14006;DHT22;7078;51.542;7.314;2023-08-06T06:42:42;17.80;99.90
14006;DHT22;7078;51.542;7.314;2023-08-06T06:45:08;18.00;99.90
14006;DHT22;7078;51.542;7.314;2023-08-06T06:47:34;18.10;99.90
14006;DHT22;7078;51.542;7.314;2023-08-06T06:49:59;18.20;99.90
14006;DHT22;7078;51.542;7.314;2023-08-06T06:52:25;18.30;99.90
14006;DHT22;7078;51.542;7.314;2023-08-06T06:54:50;18.40;99.90
14006;DHT22;7078;51.542;7.314;2023-08-06T06:57:16;18.50;99.90
14006;DHT22;7078;51.542;7.314;2023-08-06T06:59:42;18.50;99.90
14006;DHT22;7078;51.542;7.314;2023-08-06T07:02:07;18.50;99.90
14006;DHT22;7078;51.542;7.314;2023-08-06T07:04:33;18.40;99.90
14006;DHT22;7078;51.542;7.314;2023-08-06T07:06:58;18.30;99.90
14006;DHT22;7078;51.542;7.314;2023-08-06T07:09:24;18.20;99.90
14006;DHT22;7078;51.542;7.314;2023-08-06T07:11:50;18.10;99.90
14006;DHT22;7078;51.542;7.314;2023-08-06T07:14:15;18.00;99.90
14006;DHT22;7078;51.542;7.314;2023-08-06T07:16:41;17.90;99.90
14006;DHT22;7078;51.542;7.314;2023-08-06T07:19:06;17.80;99.90
14006;DHT22;7078;51.542;7.314;2023-08-06T07:21:32;17.80;99.90
14006;DHT22;7078;51.542;7.314;2023-08-06T07:23:58;17.70;99.90
14006;DHT22;7078;51.542;7.314;2023-08-06T07:26:24;17.80;99.90
14006;DHT22;7078;51.542;7.314;2023-08-06T07:28:50;17.70;99.90
14006;DHT22;7078;51.542;7.314;2023-08-06T07:31:16;17.70;99.90
14006;DHT22;7078;51.542;7.314;2023-08-06T07:33:41;17.70;99.90
14006;DHT22;7078;51.542;7.314;2023-08-06T07:36:11;17.70;99.90
14006;DHT22;7078;51.542;7.314;2023-08-06T07:38:37;17.70;99.90
14006;DHT22;7078;51.542;7.314;2023-08-06T07:41:03;17.90;99.90
14006;DHT22;7078;51.542;7.314;2023-08-06T07:43:28;18.10;99.90
14006;DHT22;7078;51.542;7.314;2023-08-06T07:45:54;18.20;99.90
14006;DHT22;7078;51.542;7.314;2023-08-06T07:48:22;18.40;99.90
14006;DHT22;7078;51.542;7.314;2023-08-06T07:50:52;18.50;99.90
14006;DHT22;7078;51.542;7.314;2023-08-06T07:53:21;18.60;99.90
14006;DHT22;7078;51.542;7.314;2023-08-06T07:55:51;18.80;99.90
14006;DHT22;7078;51.542;7.314;2023-08-06T07:58:18;19.00;99.90
14006;DHT22;7078;51.542;7.314;2023-08-06T08:00:43;19.10;99.90
14006;DHT22;7078;51.542;7.314;2023-08-06T08:03:14;19.20;99.90
14006;DHT22;7078;51.542;7.314;2023-08-06T08:05:40;19.20;99.90
14006;DHT22;7078;51.542;7.314;2023-08-06T08:08:06;19.30;99.90
14006;DHT22;7078;51.542;7.314;2023-08-06T08:10:33;19.20;99.90
14006;DHT22;7078;51.542;7.314;2023-08-06T08:13:03;19.10;99.90
14006;DHT22;7078;51.542;7.314;2023-08-06T08:15:29;19.20;99.90
14006;DHT22;7078;51.542;7.314;2023-08-06T08:17:55;19.10;99.90
14006;DHT22;7078;51.542;7.314;2023-08-06T08:20:21;19.10;99.90
14006;DHT22;7078;51.542;7.314;2023-08-06T08:22:47;18.90;99.90
14006;DHT22;7078;51.542;7.314;2023-08-06T08:25:13;18.80;99.90
14006;DHT22;7078;51.542;7.314;2023-08-06T08:27:38;18.70;99.90
14006;DHT22;7078;51.542;7.314;2023-08-06T08:30:05;18.80;99.90
14006;DHT22;7078;51.542;7.314;2023-08-06T08:32:31;18.70;99.90
14006;DHT22;7078;51.542;7.314;2023-08-06T08:34:57;18.60;99.90
14006;DHT22;7078;51.542;7.314;2023-08-06T08:37:23;18.60;99.90
14006;DHT22;7078;51.542;7.314;2023-08-06T08:39:49;18.60;99.90
14006;DHT22;7078;51.542;7.314;2023-08-06T08:42:15;18.60;99.90
14006;DHT22;7078;51.542;7.314;2023-08-06T08:44:42;18.80;99.90
14006;DHT22;7078;51.542;7.314;2023-08-06T08:47:09;18.70;99.90
14006;DHT22;7078;51.542;7.314;2023-08-06T08:49:36;18.70;99.90
14006;DHT22;7078;51.542;7.314;2023-08-06T08:52:03;18.80;99.90
14006;DHT22;7078;51.542;7.314;2023-08-06T08:54:32;18.90;99.90
14006;DHT22;7078;51.542;7.314;2023-08-06T08:56:59;19.00;99.90
14006;DHT22;7078;51.542;7.314;2023-08-06T08:59:25;19.00;99.90
14006;DHT22;7078;51.542;7.314;2023-08-06T09:01:51;19.10;99.90
14006;DHT22;7078;51.542;7.314;2023-08-06T09:04:18;19.10;99.90
14006;DHT22;7078;51.542;7.314;2023-08-06T09:06:47;19.20;99.90
14006;DHT22;7078;51.542;7.314;2023-08-06T09:09:16;19.40;99.90
14006;DHT22;7078;51.542;7.314;2023-08-06T09:11:43;19.30;99.90
14006;DHT22;7078;51.542;7.314;2023-08-06T09:14:10;19.20;99.90
14006;DHT22;7078;51.542;7.314;2023-08-06T09:16:36;19.10;99.90
14006;DHT22;7078;51.542;7.314;2023-08-06T09:19:09;19.10;99.90
14006;DHT22;7078;51.542;7.314;2023-08-06T09:21:37;19.20;99.90
14006;DHT22;7078;51.542;7.314;2023-08-06T09:24:11;19.30;99.90
14006;DHT22;7078;51.542;7.314;2023-08-06T09:26:41;19.20;99.90
14006;DHT22;7078;51.542;7.314;2023-08-06T09:29:07;19.10;99.90
14006;DHT22;7078;51.542;7.314;2023-08-06T09:31:50;19.10;99.90
14006;DHT22;7078;51.542;7.314;2023-08-06T09:34:22;19.20;99.90
14006;DHT22;7078;51.542;7.314;2023-08-06T09:36:54;19.20;99.90
14006;DHT22;7078;51.542;7.314;2023-08-06T09:39:21;19.10;99.90
14006;DHT22;7078;51.542;7.314;2023-08-06T09:41:48;19.00;99.90
14006;DHT22;7078;51.542;7.314;2023-08-06T09:44:21;19.00;99.90
14006;DHT22;7078;51.542;7.314;2023-08-06T09:46:55;19.00;99.90
14006;DHT22;7078;51.542;7.314;2023-08-06T09:51:59;19.20;99.90
14006;DHT22;7078;51.542;7.314;2023-08-06T09:54:26;19.30;99.90
14006;DHT22;7078;51.542;7.314;2023-08-06T09:56:53;19.30;99.90
14006;DHT22;7078;51.542;7.314;2023-08-06T09:59:19;19.40;99.90
14006;DHT22;7078;51.542;7.314;2023-08-06T10:01:45;19.40;99.90
14006;DHT22;7078;51.542;7.314;2023-08-06T10:04:13;19.50;99.90
14006;DHT22;7078;51.542;7.314;2023-08-06T10:06:42;19.60;99.90
14006;DHT22;7078;51.542;7.314;2023-08-06T10:09:08;19.70;99.90
14006;DHT22;7078;51.542;7.314;2023-08-06T10:11:36;19.80;99.90
14006;DHT22;7078;51.542;7.314;2023-08-06T10:14:23;19.90;99.90
14006;DHT22;7078;51.542;7.314;2023-08-06T10:16:50;20.10;99.90
14006;DHT22;7078;51.542;7.314;2023-08-06T10:19:17;20.10;99.90
14006;DHT22;7078;51.542;7.314;2023-08-06T10:22:12;20.20;99.90
14006;DHT22;7078;51.542;7.314;2023-08-06T10:24:55;20.30;99.90
14006;DHT22;7078;51.542;7.314;2023-08-06T10:27:30;20.40;99.90
14006;DHT22;7078;51.542;7.314;2023-08-06T10:40:29;20.80;99.90
14006;DHT22;7078;51.542;7.314;2023-08-06T10:42:58;20.80;99.90
14006;DHT22;7078;51.542;7.314;2023-08-06T10:45:24;20.80;99.90
14006;DHT22;7078;51.542;7.314;2023-08-06T10:47:54;20.80;99.90
14006;DHT22;7078;51.542;7.314;2023-08-06T10:50:21;21.00;99.90
14006;DHT22;7078;51.542;7.314;2023-08-06T10:52:47;21.10;99.90
14006;DHT22;7078;51.542;7.314;2023-08-06T10:55:28;21.20;99.90
14006;DHT22;7078;51.542;7.314;2023-08-06T10:57:55;21.30;99.90
14006;DHT22;7078;51.542;7.314;2023-08-06T11:00:24;21.40;99.90
14006;DHT22;7078;51.542;7.314;2023-08-06T11:02:51;21.60;99.90
14006;DHT22;7078;51.542;7.314;2023-08-06T11:05:17;21.60;99.90
14006;DHT22;7078;51.542;7.314;2023-08-06T11:07:43;21.60;99.90
14006;DHT22;7078;51.542;7.314;2023-08-06T11:10:10;21.70;99.90
14006;DHT22;7078;51.542;7.314;2023-08-06T11:12:36;21.70;99.90
14006;DHT22;7078;51.542;7.314;2023-08-06T11:15:02;21.80;99.90
14006;DHT22;7078;51.542;7.314;2023-08-06T11:17:29;21.70;99.90
14006;DHT22;7078;51.542;7.314;2023-08-06T11:19:55;21.70;99.90
14006;DHT22;7078;51.542;7.314;2023-08-06T11:22:21;21.60;99.90
14006;DHT22;7078;51.542;7.314;2023-08-06T11:24:48;21.50;99.90
14006;DHT22;7078;51.542;7.314;2023-08-06T11:27:15;21.50;99.90
14006;DHT22;7078;51.542;7.314;2023-08-06T11:29:41;21.60;99.90
14006;DHT22;7078;51.542;7.314;2023-08-06T11:32:08;21.70;99.90
14006;DHT22;7078;51.542;7.314;2023-08-06T11:34:34;21.70;99.90
14006;DHT22;7078;51.542;7.314;2023-08-06T11:37:00;21.60;99.90
14006;DHT22;7078;51.542;7.314;2023-08-06T11:39:26;21.60;99.90
14006;DHT22;7078;51.542;7.314;2023-08-06T11:41:52;21.60;99.90
14006;DHT22;7078;51.542;7.314;2023-08-06T11:44:21;21.50;99.90
14006;DHT22;7078;51.542;7.314;2023-08-06T11:49:18;21.10;99.90
14006;DHT22;7078;51.542;7.314;2023-08-06T11:51:49;21.00;99.90
14006;DHT22;7078;51.542;7.314;2023-08-06T11:54:15;20.80;99.90
14006;DHT22;7078;51.542;7.314;2023-08-06T11:56:40;20.70;99.90
14006;DHT22;7078;51.542;7.314;2023-08-06T11:59:06;20.50;99.90
14006;DHT22;7078;51.542;7.314;2023-08-06T12:01:32;20.10;99.90
14006;DHT22;7078;51.542;7.314;2023-08-06T12:04:00;19.90;99.90
14006;DHT22;7078;51.542;7.314;2023-08-06T12:06:29;19.50;99.90
14006;DHT22;7078;51.542;7.314;2023-08-06T12:08:54;19.20;99.90
14006;DHT22;7078;51.542;7.314;2023-08-06T12:11:23;18.90;99.90
14006;DHT22;7078;51.542;7.314;2023-08-06T12:13:52;18.60;99.90
14006;DHT22;7078;51.542;7.314;2023-08-06T12:16:17;18.40;99.90
14006;DHT22;7078;51.542;7.314;2023-08-06T12:18:44;18.20;99.90
14006;DHT22;7078;51.542;7.314;2023-08-06T12:21:10;18.20;99.90
14006;DHT22;7078;51.542;7.314;2023-08-06T12:23:36;18.10;99.90
14006;DHT22;7078;51.542;7.314;2023-08-06T12:26:01;18.00;99.90
14006;DHT22;7078;51.542;7.314;2023-08-06T12:28:27;17.90;99.90
14006;DHT22;7078;51.542;7.314;2023-08-06T12:30:52;17.70;99.90
14006;DHT22;7078;51.542;7.314;2023-08-06T12:33:20;17.40;99.90
14006;DHT22;7078;51.542;7.314;2023-08-06T12:35:46;17.20;99.90
14006;DHT22;7078;51.542;7.314;2023-08-06T12:38:11;17.10;99.90
14006;DHT22;7078;51.542;7.314;2023-08-06T12:40:38;17.00;99.90
14006;DHT22;7078;51.542;7.314;2023-08-06T12:43:04;16.80;99.90
14006;DHT22;7078;51.542;7.314;2023-08-06T12:45:30;16.80;99.90
14006;DHT22;7078;51.542;7.314;2023-08-06T12:47:55;16.70;99.90
14006;DHT22;7078;51.542;7.314;2023-08-06T12:50:21;16.70;99.90
14006;DHT22;7078;51.542;7.314;2023-08-06T12:52:46;16.50;99.90
14006;DHT22;7078;51.542;7.314;2023-08-06T12:55:12;16.40;99.90
14006;DHT22;7078;51.542;7.314;2023-08-06T12:57:37;16.30;99.90
14006;DHT22;7078;51.542;7.314;2023-08-06T13:00:03;16.20;99.90
14006;DHT22;7078;51.542;7.314;2023-08-06T13:02:30;16.20;99.90
14006;DHT22;7078;51.542;7.314;2023-08-06T13:04:55;16.30;99.90
14006;DHT22;7078;51.542;7.314;2023-08-06T13:07:21;16.10;99.90
14006;DHT22;7078;51.542;7.314;2023-08-06T13:09:47;16.10;99.90
14006;DHT22;7078;51.542;7.314;2023-08-06T13:12:12;15.90;99.90
14006;DHT22;7078;51.542;7.314;2023-08-06T13:14:38;15.70;99.90
14006;DHT22;7078;51.542;7.314;2023-08-06T13:17:03;15.70;99.90
14006;DHT22;7078;51.542;7.314;2023-08-06T13:19:32;15.70;99.90
14006;DHT22;7078;51.542;7.314;2023-08-06T13:22:03;15.70;99.90
14006;DHT22;7078;51.542;7.314;2023-08-06T13:24:30;15.60;99.90
14006;DHT22;7078;51.542;7.314;2023-08-06T13:26:56;15.50;99.90
14006;DHT22;7078;51.542;7.314;2023-08-06T13:29:21;15.50;99.90
14006;DHT22;7078;51.542;7.314;2023-08-06T13:31:47;15.30;99.90
14006;DHT22;7078;51.542;7.314;2023-08-06T13:34:13;15.30;99.90
14006;DHT22;7078;51.542;7.314;2023-08-06T13:36:38;15.30;99.90
14006;DHT22;7078;51.542;7.314;2023-08-06T13:39:04;15.20;99.90
14006;DHT22;7078;51.542;7.314;2023-08-06T13:41:31;15.20;99.90
14006;DHT22;7078;51.542;7.314;2023-08-06T13:43:56;15.10;99.90
14006;DHT22;7078;51.542;7.314;2023-08-06T13:46:22;15.10;99.90
14006;DHT22;7078;51.542;7.314;2023-08-06T13:48:48;15.10;99.90
14006;DHT22;7078;51.542;7.314;2023-08-06T13:51:19;15.10;99.90
14006;DHT22;7078;51.542;7.314;2023-08-06T13:53:45;15.10;99.90
14006;DHT22;7078;51.542;7.314;2023-08-06T13:56:14;15.20;99.90
14006;DHT22;7078;51.542;7.314;2023-08-06T13:58:43;15.10;99.90
14006;DHT22;7078;51.542;7.314;2023-08-06T14:01:13;15.10;99.90
14006;DHT22;7078;51.542;7.314;2023-08-06T14:03:38;15.10;99.90
14006;DHT22;7078;51.542;7.314;2023-08-06T14:06:04;15.10;99.90
14006;DHT22;7078;51.542;7.314;2023-08-06T14:08:30;15.10;99.90
14006;DHT22;7078;51.542;7.314;2023-08-06T14:10:55;15.10;99.90
14006;DHT22;7078;51.542;7.314;2023-08-06T14:13:22;15.10;99.90
14006;DHT22;7078;51.542;7.314;2023-08-06T14:15:47;15.10;99.90
14006;DHT22;7078;51.542;7.314;2023-08-06T14:18:16;15.10;99.90
14006;DHT22;7078;51.542;7.314;2023-08-06T14:20:42;15.20;99.90
14006;DHT22;7078;51.542;7.314;2023-08-06T14:23:08;15.30;99.90
14006;DHT22;7078;51.542;7.314;2023-08-06T14:25:34;15.30;99.90
14006;DHT22;7078;51.542;7.314;2023-08-06T14:27:59;15.20;99.90
14006;DHT22;7078;51.542;7.314;2023-08-06T14:30:25;15.20;99.90
14006;DHT22;7078;51.542;7.314;2023-08-06T14:32:50;15.20;99.90
14006;DHT22;7078;51.542;7.314;2023-08-06T14:35:16;15.30;99.90
14006;DHT22;7078;51.542;7.314;2023-08-06T14:37:42;15.20;99.90
14006;DHT22;7078;51.542;7.314;2023-08-06T14:40:08;15.10;99.90
14006;DHT22;7078;51.542;7.314;2023-08-06T14:42:34;15.20;99.90
14006;DHT22;7078;51.542;7.314;2023-08-06T14:44:59;15.10;99.90
14006;DHT22;7078;51.542;7.314;2023-08-06T14:47:25;15.10;99.90
14006;DHT22;7078;51.542;7.314;2023-08-06T14:49:50;15.10;99.90
14006;DHT22;7078;51.542;7.314;2023-08-06T14:52:16;15.20;99.90
14006;DHT22;7078;51.542;7.314;2023-08-06T14:54:42;15.20;99.90
14006;DHT22;7078;51.542;7.314;2023-08-06T14:57:08;15.20;99.90
14006;DHT22;7078;51.542;7.314;2023-08-06T14:59:34;15.20;99.90
14006;DHT22;7078;51.542;7.314;2023-08-06T15:02:00;15.20;99.90
14006;DHT22;7078;51.542;7.314;2023-08-06T15:04:26;15.20;99.90
14006;DHT22;7078;51.542;7.314;2023-08-06T15:06:51;15.30;99.90
14006;DHT22;7078;51.542;7.314;2023-08-06T15:09:17;15.30;99.90
14006;DHT22;7078;51.542;7.314;2023-08-06T15:11:43;15.40;99.90
14006;DHT22;7078;51.542;7.314;2023-08-06T15:14:08;15.50;99.90
14006;DHT22;7078;51.542;7.314;2023-08-06T15:16:34;15.50;99.90
14006;DHT22;7078;51.542;7.314;2023-08-06T15:19:00;15.60;99.90
14006;DHT22;7078;51.542;7.314;2023-08-06T15:21:27;15.60;99.90
14006;DHT22;7078;51.542;7.314;2023-08-06T15:23:52;15.60;99.90
14006;DHT22;7078;51.542;7.314;2023-08-06T15:26:18;15.60;99.90
14006;DHT22;7078;51.542;7.314;2023-08-06T15:28:43;15.60;99.90
14006;DHT22;7078;51.542;7.314;2023-08-06T15:31:09;15.60;99.90
14006;DHT22;7078;51.542;7.314;2023-08-06T15:33:35;15.60;99.90
14006;DHT22;7078;51.542;7.314;2023-08-06T15:36:01;15.50;99.90
14006;DHT22;7078;51.542;7.314;2023-08-06T15:38:26;15.60;99.90
14006;DHT22;7078;51.542;7.314;2023-08-06T15:40:53;15.60;99.90
14006;DHT22;7078;51.542;7.314;2023-08-06T15:43:18;15.60;99.90
14006;DHT22;7078;51.542;7.314;2023-08-06T15:45:44;15.60;99.90
14006;DHT22;7078;51.542;7.314;2023-08-06T15:48:09;15.50;99.90
14006;DHT22;7078;51.542;7.314;2023-08-06T15:50:37;15.50;99.90
14006;DHT22;7078;51.542;7.314;2023-08-06T15:53:03;15.50;99.90
14006;DHT22;7078;51.542;7.314;2023-08-06T15:55:29;15.60;99.90
14006;DHT22;7078;51.542;7.314;2023-08-06T15:57:54;15.50;99.90
14006;DHT22;7078;51.542;7.314;2023-08-06T16:00:20;15.50;99.90